LGAVLGKV

Guest
Details From LGAV - Athens Intl Airport Elefterios Venizel
To LGKV - Kavala Megas Alexandros
Flight Number -
Tags None
Created
Modified
Stats Distance 208 nm / 385 km
Max Altitude 308 ft / 94 m
Waypoints 8
Social Downloads 6
Likes 0
Share

Download

Looking for another format? Having issues loading an existing format? Contact us
Advertisement - Login to hide

Notes

None

Route

LGAV NEVRA AMISI KOROS LUPIS LMO AMALA LGKV

ID Type Via Altitude (ft/m) Position (lat/lon) Dist (leg/tot) Name
O LGAV APT - 308 / 94 37.93670 / 23.94450 - / 0 nm Athens Intl Airport Elefterios Venizel
NEVRA FIX - 0 / 0 38.16833 / 24.56028 32 / 32 nm
AMISI FIX - 0 / 0 38.84667 / 24.81833 42 / 74 nm
KOROS FIX - 0 / 0 39.09972 / 24.91583 15 / 90 nm
LUPIS FIX - 0 / 0 39.21056 / 24.95889 6 / 97 nm
LMO VOR - 35 / 11 39.91954 / 25.23719 44 / 142 nm LIMNOS VOR-DME
AMALA FIX - 0 / 0 40.56861 / 24.83278 43 / 185 nm
O LGKV APT - 18 / 5 40.91389 / 24.61972 22 / 208 nm Kavala Megas Alexandros

Altitude Profile

Advertisement - Login to hide

Weather


0- 5 10 15 20 25 30 35+ Temperature / °C

Clouds and Precipitation
Forecast for 2020-10-24 00:00 UTC. Updated 2 hours ago

Ground ~20,000 ft ~40,000 ft Winds

LGAV

Details ICAO LGAV (ATH)
Name Athens "Eleftherios Venizelos"
Region Greece
Timezone Europe/Athens (UTC+3.0)
Stats Elevation 308 ft / 94 m (AMSL)
Location 37.936700° 23.944500°
Runways 2
Magnetic Variation 4.763° E

METAR

LGAV 232320Z 26001KT CAVOK 12/11 Q1018 NOSIG

Decode

TAF

TAF TAF LGAV 231700Z 2318/2418 VRB05KT 9999 FEW025

Decode

Departure Runways

ID Width Length Bearing (true/mag) Surface Threshold Overrun Markings Lighting
03L 151 ft / 46 m 12,478 ft / 3,803 m 36.86° / 32.10° ASPHALT 984 ft / 300 m 394 ft / 120 m PREC-APP CENTERLINE EDGE THRESHOLD ALSF-II TDZ REIL-OMNI
03R 151 ft / 46 m 13,135 ft / 4,004 m 36.87° / 32.11° ASPHALT 984 ft / 300 m 394 ft / 120 m PREC-APP CENTERLINE EDGE THRESHOLD ALSF-II TDZ REIL-OMNI
21L 151 ft / 46 m 13,135 ft / 4,004 m 216.89° / 212.13° ASPHALT 984 ft / 300 m 394 ft / 120 m PREC-APP CENTERLINE EDGE THRESHOLD ALSF-II TDZ REIL-OMNI
21R 151 ft / 46 m 12,478 ft / 3,803 m 216.87° / 212.11° ASPHALT 984 ft / 300 m 394 ft / 120 m PREC-APP CENTERLINE EDGE THRESHOLD ALSF-II TDZ REIL-OMNI

LGKV

Details ICAO LGKV (KVA)
Name Kavala Megas Alexandros Intl.
Region Greece
Timezone Europe/Athens (UTC+3.0)
Stats Elevation 17 ft / 5 m (AMSL)
Location 40.914000° 24.619600°
Runways 1
Magnetic Variation 5.182° E

METAR

LGKV 232250Z 09002KT CAVOK 12/10 Q1018

Decode

TAF

TAF LGKV 231700Z 2318/2418 VRB03KT CAVOK

Decode

Destination Runways

ID Width Length Bearing (true/mag) Surface Threshold Overrun Markings Lighting
05R 148 ft / 45 m 9,851 ft / 3,003 m 55.29° / 50.11° ASPHALT 0 ft / 0 m 932 ft / 284 m PREC-APP EDGE THRESHOLD SALS
23L 148 ft / 45 m 9,851 ft / 3,003 m 235.31° / 230.13° ASPHALT 0 ft / 0 m 932 ft / 284 m PREC-APP EDGE THRESHOLD

Popular Alternatives